aviador You're here:

KDET Decoded Metar

DETROIT in MI, USA
Report Time2017-03-28 05:53:00
UTC Time2017-03-28 06:17:05
Flight Rules mvfr MVFR
Wind060° at 07 kt
W.Decomp.*RWY 07: 7.0 kt HW 0.6 kt LCW
RWY 15: 0.6 kt HW 7 kt LCW
W.Rank060° ranks 26
Current wind is above 060° avg. (6.4)
Visibility9999 m
Phenomena:N/A
Clouds:Broken 012 Hf
Overcast 043 Hf
Expected CloudBase > 400 ft AGL from Temp-Dew spread
Ceiling1,200 ft
Temp08°C (ISA -6)
Dew Point07°C (93% RH)
AAT4.8°C
QNH1013 hPa
Density Alt69 ft
Elevation623 ft
Report Wrong Elevation
Raw Report
KDET 280553Z 06007KT 10SM BKN012 OVC043 08/07 A2991=

Extra information for KDET:More info

Metar Taf Metar & Taf Last 4 Metars F.Rules Stats Wind Profile Meteogram Temp Stats Airport Information Weather charts Add Link Nearby VenuesMetar ALERT Operation Metar Decoded Social comments

AIRNAV info for KDET